Atlasburg, PA

10:09 PM EDT on October 20, 2014 (GMT -0400)
Burgettstown PA | Change Station
CLOSE
Current Station
Personal Weather Station
Location: Burgsttown Pa, PA
Elevation: 988 ft
Nearby Weather Stations

Elev 988 ft 40.38 °N, 80.39 °W | Updated 10 minutes ago

Overcast
Overcast
50.4 °F
Feels Like 50.4 °F
N
0.0
Wind Variable Wind from West

Today
High -- | Low -- °F
--% Chance of Precip.
Yesterday
High -- | Low -- °F
Precip. -- in
7:37 AM 6:34 PM
Waning Crescent, 8% visible
Pressure 29.91 in
Visibility 10.0 miles
Clouds Overcast 5000 ft
Dew Point 48 °F
Humidity 93%
Rainfall 0.00 in
Snow Depth Not available.
UV 0 out of 12
Pollen .90 out of 12
Ozone Good
PM2.5 Good
Flu Activity Sporadic
METAR KPIT 210151Z 20005KT 10SM OVC050 11/08 A2988 RMK AO2 RAE43 SLP129 P0000 T01110078

More Conditions Fewer Conditions

Pressure 29.91 in
Visibility 10.0 miles
Clouds Overcast 5000 ft
Dew Point 48 °F
Humidity 93%
Rainfall 0.00 in
Snow Depth Not available.
UV 0 out of 12
Pollen .90 out of 12
Ozone Good
PM2.5 Good
Flu Activity Sporadic
METAR KPIT 210151Z 20005KT 10SM OVC050 11/08 A2988 RMK AO2 RAE43 SLP129 P0000 T01110078

More Conditions Fewer Conditions

10-Day Weather Forecast

Almanac

Astronomy

Oct. 20, 2014 Rise Set
Actual Time 7:37 AM EDT 6:34 PM EDT
Civil Twilight 7:10 AM EDT 7:01 PM EDT
Nautical Twilight 6:38 AM EDT 7:33 PM EDT
Astronomical Twilight 6:06 AM EDT 8:05 PM EDT
Moon 4:24 AM EDT (10/20) 4:56 PM EDT (10/20)
Length of Visible Light 11h 51m
Length of Day
10h 56m
Tomorrow will be 2m 32s shorter.
Waning Crescent, 8% of the Moon is Illuminated
Today
Waning Crescent
Oct 23
New
Oct 30
First Quarter
Nov 6
Full
Nov 14
Last Quarter

Today's Extremes

State Highs State Lows

Community

WunderPhotos

Upload Photos

1,763,569 photos uploaded!

Nearby

Air Quality

  Air Quality AQ Index Pollutant
Yesterday Good
OZONE
Yesterday Good
PM2.5
Current Good
PM2.5
Current Good
OZONE
Monday Moderate
PM2.5
Tuesday Good
PM2.5
Wednesday Good
PM2.5

Snow Depth

Station Depth Elevation
No new snow has been reported.

Earthquake Activity

City Distance Mag. Time & Date
No recent earthquake activity has been reported nearby.
Minimum magnitude displayed is 2.5.

Coastal Water Temperatures

Place Temperature
No Stations Reporting

Nearby Weather Stations